sensor_id;sensor_type;location;lat;lon;timestamp;temperature;humidity
1680;DHT22;838;51.794;12.258;2022-08-20T00:00:17;23.00;75.50
1680;DHT22;838;51.794;12.258;2022-08-20T00:02:51;22.60;79.60
1680;DHT22;838;51.794;12.258;2022-08-20T00:05:22;22.40;82.60
1680;DHT22;838;51.794;12.258;2022-08-20T00:07:48;22.30;83.70
1680;DHT22;838;51.794;12.258;2022-08-20T00:10:14;22.20;84.40
1680;DHT22;838;51.794;12.258;2022-08-20T00:12:44;22.20;83.70
1680;DHT22;838;51.794;12.258;2022-08-20T00:15:11;22.30;82.10
1680;DHT22;838;51.794;12.258;2022-08-20T00:17:37;22.40;81.80
1680;DHT22;838;51.794;12.258;2022-08-20T00:20:10;22.60;80.10
1680;DHT22;838;51.794;12.258;2022-08-20T00:22:37;22.80;78.10
1680;DHT22;838;51.794;12.258;2022-08-20T00:25:06;22.90;76.10
1680;DHT22;838;51.794;12.258;2022-08-20T00:27:32;23.00;75.80
1680;DHT22;838;51.794;12.258;2022-08-20T00:30:00;23.10;74.80
1680;DHT22;838;51.794;12.258;2022-08-20T00:32:26;23.30;74.10
1680;DHT22;838;51.794;12.258;2022-08-20T00:35:00;23.20;75.30
1680;DHT22;838;51.794;12.258;2022-08-20T00:37:26;23.20;74.20
1680;DHT22;838;51.794;12.258;2022-08-20T00:39:52;23.20;74.80
1680;DHT22;838;51.794;12.258;2022-08-20T00:42:18;23.10;74.20
1680;DHT22;838;51.794;12.258;2022-08-20T00:44:46;22.90;76.00
1680;DHT22;838;51.794;12.258;2022-08-20T00:47:12;22.90;76.90
1680;DHT22;838;51.794;12.258;2022-08-20T00:49:38;22.80;77.40
1680;DHT22;838;51.794;12.258;2022-08-20T00:52:08;22.70;78.30
1680;DHT22;838;51.794;12.258;2022-08-20T00:54:49;22.60;79.30
1680;DHT22;838;51.794;12.258;2022-08-20T00:59:42;22.00;83.40
1680;DHT22;838;51.794;12.258;2022-08-20T01:02:11;22.00;85.80
1680;DHT22;838;51.794;12.258;2022-08-20T01:04:38;21.80;88.20
1680;DHT22;838;51.794;12.258;2022-08-20T01:07:06;21.70;89.70
1680;DHT22;838;51.794;12.258;2022-08-20T01:09:33;21.60;90.40
1680;DHT22;838;51.794;12.258;2022-08-20T01:12:00;21.40;91.00
1680;DHT22;838;51.794;12.258;2022-08-20T01:14:26;21.40;91.40
1680;DHT22;838;51.794;12.258;2022-08-20T01:16:58;21.30;91.70
1680;DHT22;838;51.794;12.258;2022-08-20T01:19:31;21.20;92.00
1680;DHT22;838;51.794;12.258;2022-08-20T01:21:59;21.10;92.50
1680;DHT22;838;51.794;12.258;2022-08-20T01:24:49;21.00;93.20
1680;DHT22;838;51.794;12.258;2022-08-20T01:27:17;21.10;93.10
1680;DHT22;838;51.794;12.258;2022-08-20T01:29:43;21.30;92.30
1680;DHT22;838;51.794;12.258;2022-08-20T01:32:10;21.30;92.40
1680;DHT22;838;51.794;12.258;2022-08-20T01:34:36;21.20;92.40
1680;DHT22;838;51.794;12.258;2022-08-20T01:37:01;21.20;92.30
1680;DHT22;838;51.794;12.258;2022-08-20T01:39:32;21.20;92.70
1680;DHT22;838;51.794;12.258;2022-08-20T01:42:11;21.30;92.50
1680;DHT22;838;51.794;12.258;2022-08-20T01:44:45;21.40;91.90
1680;DHT22;838;51.794;12.258;2022-08-20T01:47:22;21.20;92.30
1680;DHT22;838;51.794;12.258;2022-08-20T01:49:55;21.30;92.20
1680;DHT22;838;51.794;12.258;2022-08-20T01:52:32;21.40;91.60
1680;DHT22;838;51.794;12.258;2022-08-20T01:55:03;21.40;91.80
1680;DHT22;838;51.794;12.258;2022-08-20T01:57:29;21.60;91.50
1680;DHT22;838;51.794;12.258;2022-08-20T01:59:55;21.90;89.70
1680;DHT22;838;51.794;12.258;2022-08-20T02:02:21;21.90;89.20
1680;DHT22;838;51.794;12.258;2022-08-20T02:04:48;22.00;88.00
1680;DHT22;838;51.794;12.258;2022-08-20T02:07:17;21.90;87.50
1680;DHT22;838;51.794;12.258;2022-08-20T02:09:44;21.80;88.80
1680;DHT22;838;51.794;12.258;2022-08-20T02:12:11;21.60;90.10
1680;DHT22;838;51.794;12.258;2022-08-20T02:14:50;21.40;90.70
1680;DHT22;838;51.794;12.258;2022-08-20T02:17:22;21.40;91.30
1680;DHT22;838;51.794;12.258;2022-08-20T02:19:51;21.40;91.20
1680;DHT22;838;51.794;12.258;2022-08-20T02:22:41;21.40;91.30
1680;DHT22;838;51.794;12.258;2022-08-20T02:25:09;21.50;91.10
1680;DHT22;838;51.794;12.258;2022-08-20T02:27:37;21.40;91.30
1680;DHT22;838;51.794;12.258;2022-08-20T02:30:13;21.40;91.20
1680;DHT22;838;51.794;12.258;2022-08-20T02:32:40;21.30;91.50
1680;DHT22;838;51.794;12.258;2022-08-20T02:35:08;21.20;92.20
1680;DHT22;838;51.794;12.258;2022-08-20T02:37:40;21.20;92.50
1680;DHT22;838;51.794;12.258;2022-08-20T02:40:07;21.20;92.40
1680;DHT22;838;51.794;12.258;2022-08-20T02:42:34;21.30;92.10
1680;DHT22;838;51.794;12.258;2022-08-20T02:45:01;21.40;91.30
1680;DHT22;838;51.794;12.258;2022-08-20T02:47:27;21.50;91.10
1680;DHT22;838;51.794;12.258;2022-08-20T02:49:54;21.70;90.40
1680;DHT22;838;51.794;12.258;2022-08-20T02:52:20;21.90;89.50
1680;DHT22;838;51.794;12.258;2022-08-20T02:54:49;22.00;87.80
1680;DHT22;838;51.794;12.258;2022-08-20T02:57:16;22.00;88.00
1680;DHT22;838;51.794;12.258;2022-08-20T02:59:45;22.10;87.20
1680;DHT22;838;51.794;12.258;2022-08-20T03:02:11;22.10;87.60
1680;DHT22;838;51.794;12.258;2022-08-20T03:04:37;22.10;85.90
1680;DHT22;838;51.794;12.258;2022-08-20T03:07:04;22.10;85.80
1680;DHT22;838;51.794;12.258;2022-08-20T03:09:30;22.00;86.30
1680;DHT22;838;51.794;12.258;2022-08-20T03:11:56;22.00;88.20
1680;DHT22;838;51.794;12.258;2022-08-20T03:14:22;21.90;89.00
1680;DHT22;838;51.794;12.258;2022-08-20T03:16:48;21.90;88.90
1680;DHT22;838;51.794;12.258;2022-08-20T03:19:14;21.80;89.20
1680;DHT22;838;51.794;12.258;2022-08-20T03:21:39;21.70;90.00
1680;DHT22;838;51.794;12.258;2022-08-20T03:24:05;21.80;89.40
1680;DHT22;838;51.794;12.258;2022-08-20T03:26:31;21.90;88.10
1680;DHT22;838;51.794;12.258;2022-08-20T03:28:57;21.80;88.50
1680;DHT22;838;51.794;12.258;2022-08-20T03:31:22;21.70;88.00
1680;DHT22;838;51.794;12.258;2022-08-20T03:33:48;21.60;90.00
1680;DHT22;838;51.794;12.258;2022-08-20T03:36:14;21.40;90.80
1680;DHT22;838;51.794;12.258;2022-08-20T03:38:40;21.30;91.30
1680;DHT22;838;51.794;12.258;2022-08-20T03:41:06;21.10;92.20
1680;DHT22;838;51.794;12.258;2022-08-20T03:43:32;21.10;92.00
1680;DHT22;838;51.794;12.258;2022-08-20T03:45:58;21.10;92.00
1680;DHT22;838;51.794;12.258;2022-08-20T03:48:24;21.00;92.40
1680;DHT22;838;51.794;12.258;2022-08-20T03:50:50;21.10;92.20
1680;DHT22;838;51.794;12.258;2022-08-20T03:53:17;21.00;92.40
1680;DHT22;838;51.794;12.258;2022-08-20T03:55:45;20.90;92.60
1680;DHT22;838;51.794;12.258;2022-08-20T03:58:13;20.80;93.30
1680;DHT22;838;51.794;12.258;2022-08-20T04:00:49;20.70;93.80
1680;DHT22;838;51.794;12.258;2022-08-20T04:03:16;20.60;94.10
1680;DHT22;838;51.794;12.258;2022-08-20T04:05:42;20.60;94.30
1680;DHT22;838;51.794;12.258;2022-08-20T04:08:18;20.60;94.50
1680;DHT22;838;51.794;12.258;2022-08-20T04:10:45;20.60;94.20
1680;DHT22;838;51.794;12.258;2022-08-20T04:13:13;20.70;94.20
1680;DHT22;838;51.794;12.258;2022-08-20T04:15:40;20.70;94.00
1680;DHT22;838;51.794;12.258;2022-08-20T04:18:07;20.70;94.60
1680;DHT22;838;51.794;12.258;2022-08-20T04:20:35;20.60;94.60
1680;DHT22;838;51.794;12.258;2022-08-20T04:23:02;20.60;94.60
1680;DHT22;838;51.794;12.258;2022-08-20T04:25:30;20.50;95.00
1680;DHT22;838;51.794;12.258;2022-08-20T04:27:57;20.40;95.50
1680;DHT22;838;51.794;12.258;2022-08-20T04:30:24;20.30;96.10
1680;DHT22;838;51.794;12.258;2022-08-20T04:32:50;20.30;96.30
1680;DHT22;838;51.794;12.258;2022-08-20T04:35:17;20.30;96.40
1680;DHT22;838;51.794;12.258;2022-08-20T04:37:45;20.30;96.30
1680;DHT22;838;51.794;12.258;2022-08-20T04:40:16;20.40;96.30
1680;DHT22;838;51.794;12.258;2022-08-20T04:43:01;20.60;96.00
1680;DHT22;838;51.794;12.258;2022-08-20T04:45:29;20.60;95.30
1680;DHT22;838;51.794;12.258;2022-08-20T04:47:55;20.70;94.90
1680;DHT22;838;51.794;12.258;2022-08-20T04:50:22;20.80;95.30
1680;DHT22;838;51.794;12.258;2022-08-20T04:52:48;20.90;94.30
1680;DHT22;838;51.794;12.258;2022-08-20T04:55:16;21.00;94.10
1680;DHT22;838;51.794;12.258;2022-08-20T04:57:43;21.30;93.50
1680;DHT22;838;51.794;12.258;2022-08-20T05:00:15;21.60;92.00
1680;DHT22;838;51.794;12.258;2022-08-20T05:02:41;21.80;91.10
1680;DHT22;838;51.794;12.258;2022-08-20T05:05:07;21.80;91.20
1680;DHT22;838;51.794;12.258;2022-08-20T05:07:38;21.80;91.10
1680;DHT22;838;51.794;12.258;2022-08-20T05:10:06;21.90;90.70
1680;DHT22;838;51.794;12.258;2022-08-20T05:12:32;21.90;90.30
1680;DHT22;838;51.794;12.258;2022-08-20T05:14:57;22.00;90.10
1680;DHT22;838;51.794;12.258;2022-08-20T05:17:23;22.10;89.50
1680;DHT22;838;51.794;12.258;2022-08-20T05:19:51;22.10;88.40
1680;DHT22;838;51.794;12.258;2022-08-20T05:22:17;22.20;89.10
1680;DHT22;838;51.794;12.258;2022-08-20T05:24:43;22.30;88.20
1680;DHT22;838;51.794;12.258;2022-08-20T05:27:08;22.30;87.10
1680;DHT22;838;51.794;12.258;2022-08-20T05:29:34;22.30;87.00
1680;DHT22;838;51.794;12.258;2022-08-20T05:32:03;22.30;87.30
1680;DHT22;838;51.794;12.258;2022-08-20T05:34:29;22.40;86.90
1680;DHT22;838;51.794;12.258;2022-08-20T05:36:57;22.60;85.20
1680;DHT22;838;51.794;12.258;2022-08-20T05:39:24;22.60;84.40
1680;DHT22;838;51.794;12.258;2022-08-20T05:41:50;22.60;84.30
1680;DHT22;838;51.794;12.258;2022-08-20T05:44:17;22.50;84.50
1680;DHT22;838;51.794;12.258;2022-08-20T05:46:44;22.50;84.90
1680;DHT22;838;51.794;12.258;2022-08-20T05:49:13;22.50;85.60
1680;DHT22;838;51.794;12.258;2022-08-20T05:51:40;22.50;85.70
1680;DHT22;838;51.794;12.258;2022-08-20T05:54:06;22.50;86.40
1680;DHT22;838;51.794;12.258;2022-08-20T05:56:33;22.50;85.70
1680;DHT22;838;51.794;12.258;2022-08-20T05:59:00;22.40;86.00
1680;DHT22;838;51.794;12.258;2022-08-20T06:01:28;22.40;86.70
1680;DHT22;838;51.794;12.258;2022-08-20T06:03:54;22.40;87.00
1680;DHT22;838;51.794;12.258;2022-08-20T06:06:38;22.40;87.70
1680;DHT22;838;51.794;12.258;2022-08-20T06:09:05;22.50;87.80
1680;DHT22;838;51.794;12.258;2022-08-20T06:11:30;22.70;84.40
1680;DHT22;838;51.794;12.258;2022-08-20T06:13:56;22.80;84.20
1680;DHT22;838;51.794;12.258;2022-08-20T06:16:22;22.80;84.20
1680;DHT22;838;51.794;12.258;2022-08-20T06:18:48;22.80;83.40
1680;DHT22;838;51.794;12.258;2022-08-20T06:21:14;22.80;83.80
1680;DHT22;838;51.794;12.258;2022-08-20T06:23:40;22.90;83.80
1680;DHT22;838;51.794;12.258;2022-08-20T06:26:06;23.00;82.10
1680;DHT22;838;51.794;12.258;2022-08-20T06:28:34;23.10;81.70
1680;DHT22;838;51.794;12.258;2022-08-20T06:31:00;23.30;79.10
1680;DHT22;838;51.794;12.258;2022-08-20T06:33:25;23.20;79.40
1680;DHT22;838;51.794;12.258;2022-08-20T06:35:51;23.20;80.30
1680;DHT22;838;51.794;12.258;2022-08-20T06:38:17;23.40;78.70
1680;DHT22;838;51.794;12.258;2022-08-20T06:40:44;23.60;77.30
1680;DHT22;838;51.794;12.258;2022-08-20T06:43:10;23.80;75.80
1680;DHT22;838;51.794;12.258;2022-08-20T06:45:37;23.80;74.70
1680;DHT22;838;51.794;12.258;2022-08-20T06:48:09;24.00;74.10
1680;DHT22;838;51.794;12.258;2022-08-20T06:50:38;24.10;72.30
1680;DHT22;838;51.794;12.258;2022-08-20T06:53:05;24.00;73.20
1680;DHT22;838;51.794;12.258;2022-08-20T06:55:31;24.00;72.70
1680;DHT22;838;51.794;12.258;2022-08-20T06:58:06;24.10;73.10
1680;DHT22;838;51.794;12.258;2022-08-20T07:00:33;23.90;74.30
1680;DHT22;838;51.794;12.258;2022-08-20T07:03:03;24.00;73.70
1680;DHT22;838;51.794;12.258;2022-08-20T07:05:34;24.00;73.50
1680;DHT22;838;51.794;12.258;2022-08-20T07:08:02;24.10;70.50
1680;DHT22;838;51.794;12.258;2022-08-20T07:10:28;24.20;70.70
1680;DHT22;838;51.794;12.258;2022-08-20T07:12:56;24.40;70.50
1680;DHT22;838;51.794;12.258;2022-08-20T07:15:24;24.60;67.80
1680;DHT22;838;51.794;12.258;2022-08-20T07:17:56;24.70;66.90
1680;DHT22;838;51.794;12.258;2022-08-20T07:20:23;24.60;65.70
1680;DHT22;838;51.794;12.258;2022-08-20T07:22:49;24.60;65.10
1680;DHT22;838;51.794;12.258;2022-08-20T07:25:16;24.70;64.20
1680;DHT22;838;51.794;12.258;2022-08-20T07:27:43;24.60;65.30
1680;DHT22;838;51.794;12.258;2022-08-20T07:30:13;24.50;66.40
1680;DHT22;838;51.794;12.258;2022-08-20T07:32:58;24.30;67.50
1680;DHT22;838;51.794;12.258;2022-08-20T07:35:24;24.30;70.00
1680;DHT22;838;51.794;12.258;2022-08-20T07:37:50;24.40;68.70
1680;DHT22;838;51.794;12.258;2022-08-20T07:40:24;24.60;68.00
1680;DHT22;838;51.794;12.258;2022-08-20T07:42:52;24.70;70.40
1680;DHT22;838;51.794;12.258;2022-08-20T07:45:18;24.90;67.40
1680;DHT22;838;51.794;12.258;2022-08-20T07:47:46;25.10;63.80
1680;DHT22;838;51.794;12.258;2022-08-20T07:50:15;25.10;64.00
1680;DHT22;838;51.794;12.258;2022-08-20T07:52:41;25.30;61.80
1680;DHT22;838;51.794;12.258;2022-08-20T07:55:10;25.10;61.60
1680;DHT22;838;51.794;12.258;2022-08-20T07:57:37;24.60;64.20
1680;DHT22;838;51.794;12.258;2022-08-20T08:00:04;24.40;68.50
1680;DHT22;838;51.794;12.258;2022-08-20T08:02:32;23.90;71.10
1680;DHT22;838;51.794;12.258;2022-08-20T08:04:58;23.50;73.30
1680;DHT22;838;51.794;12.258;2022-08-20T08:07:25;23.10;76.50
1680;DHT22;838;51.794;12.258;2022-08-20T08:09:51;23.00;77.60
1680;DHT22;838;51.794;12.258;2022-08-20T08:12:18;23.00;76.70
1680;DHT22;838;51.794;12.258;2022-08-20T08:14:46;23.10;79.40
1680;DHT22;838;51.794;12.258;2022-08-20T08:17:14;23.20;80.80
1680;DHT22;838;51.794;12.258;2022-08-20T08:19:44;23.20;78.60
1680;DHT22;838;51.794;12.258;2022-08-20T08:22:14;23.20;77.40
1680;DHT22;838;51.794;12.258;2022-08-20T08:24:41;23.10;76.40
1680;DHT22;838;51.794;12.258;2022-08-20T08:27:14;23.20;79.90
1680;DHT22;838;51.794;12.258;2022-08-20T08:29:45;23.30;77.80
1680;DHT22;838;51.794;12.258;2022-08-20T08:32:11;23.60;71.80
1680;DHT22;838;51.794;12.258;2022-08-20T08:34:37;23.50;71.30
1680;DHT22;838;51.794;12.258;2022-08-20T08:37:04;23.20;76.60
1680;DHT22;838;51.794;12.258;2022-08-20T08:39:31;23.10;76.60
1680;DHT22;838;51.794;12.258;2022-08-20T08:41:59;23.00;75.30
1680;DHT22;838;51.794;12.258;2022-08-20T08:44:33;23.20;78.20
1680;DHT22;838;51.794;12.258;2022-08-20T08:47:04;23.60;73.90
1680;DHT22;838;51.794;12.258;2022-08-20T08:49:35;24.00;69.80
1680;DHT22;838;51.794;12.258;2022-08-20T08:52:21;24.00;67.40
1680;DHT22;838;51.794;12.258;2022-08-20T08:54:52;23.60;71.70
1680;DHT22;838;51.794;12.258;2022-08-20T08:57:19;23.70;73.50
1680;DHT22;838;51.794;12.258;2022-08-20T08:59:54;23.70;69.20
1680;DHT22;838;51.794;12.258;2022-08-20T09:02:22;23.80;68.00
1680;DHT22;838;51.794;12.258;2022-08-20T09:04:51;23.90;68.50
1680;DHT22;838;51.794;12.258;2022-08-20T09:07:31;24.10;66.90
1680;DHT22;838;51.794;12.258;2022-08-20T09:09:57;24.40;63.10
1680;DHT22;838;51.794;12.258;2022-08-20T09:12:30;24.70;62.60
1680;DHT22;838;51.794;12.258;2022-08-20T09:14:57;24.70;58.20
1680;DHT22;838;51.794;12.258;2022-08-20T09:17:23;24.90;57.10
1680;DHT22;838;51.794;12.258;2022-08-20T09:19:49;24.80;58.80
1680;DHT22;838;51.794;12.258;2022-08-20T09:22:19;24.70;55.20
1680;DHT22;838;51.794;12.258;2022-08-20T09:24:45;24.10;62.50
1680;DHT22;838;51.794;12.258;2022-08-20T09:27:11;23.40;68.70
1680;DHT22;838;51.794;12.258;2022-08-20T09:29:37;23.40;71.90
1680;DHT22;838;51.794;12.258;2022-08-20T09:32:12;23.40;71.60
1680;DHT22;838;51.794;12.258;2022-08-20T09:34:47;23.40;71.00
1680;DHT22;838;51.794;12.258;2022-08-20T09:37:14;23.20;71.60
1680;DHT22;838;51.794;12.258;2022-08-20T09:39:40;23.00;72.10
1680;DHT22;838;51.794;12.258;2022-08-20T09:44:34;22.90;75.40
1680;DHT22;838;51.794;12.258;2022-08-20T09:47:00;22.80;73.10
1680;DHT22;838;51.794;12.258;2022-08-20T09:49:31;22.90;76.00
1680;DHT22;838;51.794;12.258;2022-08-20T09:51:58;23.20;72.90
1680;DHT22;838;51.794;12.258;2022-08-20T09:54:26;23.30;71.10
1680;DHT22;838;51.794;12.258;2022-08-20T09:57:06;23.40;69.40
1680;DHT22;838;51.794;12.258;2022-08-20T09:59:39;23.20;72.50
1680;DHT22;838;51.794;12.258;2022-08-20T10:02:04;22.90;76.70
1680;DHT22;838;51.794;12.258;2022-08-20T10:04:33;22.90;78.10
1680;DHT22;838;51.794;12.258;2022-08-20T10:06:59;23.00;76.10
1680;DHT22;838;51.794;12.258;2022-08-20T10:09:25;22.80;77.40
1680;DHT22;838;51.794;12.258;2022-08-20T10:11:55;23.00;77.80
1680;DHT22;838;51.794;12.258;2022-08-20T10:14:22;23.10;77.70
1680;DHT22;838;51.794;12.258;2022-08-20T10:16:55;22.90;76.20
1680;DHT22;838;51.794;12.258;2022-08-20T10:19:30;22.80;78.30
1680;DHT22;838;51.794;12.258;2022-08-20T10:21:57;22.80;79.40
1680;DHT22;838;51.794;12.258;2022-08-20T10:24:23;22.80;78.60
1680;DHT22;838;51.794;12.258;2022-08-20T10:26:55;22.90;78.50
1680;DHT22;838;51.794;12.258;2022-08-20T10:29:21;22.90;80.70
1680;DHT22;838;51.794;12.258;2022-08-20T10:31:47;23.10;75.00
1680;DHT22;838;51.794;12.258;2022-08-20T10:34:13;23.20;73.90
1680;DHT22;838;51.794;12.258;2022-08-20T10:36:41;23.00;72.20
1680;DHT22;838;51.794;12.258;2022-08-20T10:39:10;22.90;75.10
1680;DHT22;838;51.794;12.258;2022-08-20T10:41:36;22.70;74.70
1680;DHT22;838;51.794;12.258;2022-08-20T10:44:06;22.60;77.20
1680;DHT22;838;51.794;12.258;2022-08-20T10:46:33;22.70;77.30
1680;DHT22;838;51.794;12.258;2022-08-20T10:48:59;22.90;77.00
1680;DHT22;838;51.794;12.258;2022-08-20T10:51:28;22.90;75.00
1680;DHT22;838;51.794;12.258;2022-08-20T10:53:54;22.90;76.60
1680;DHT22;838;51.794;12.258;2022-08-20T10:56:20;22.80;76.80
1680;DHT22;838;51.794;12.258;2022-08-20T10:58:45;22.80;76.00
1680;DHT22;838;51.794;12.258;2022-08-20T11:01:11;22.70;77.30
1680;DHT22;838;51.794;12.258;2022-08-20T11:03:37;22.60;77.70
1680;DHT22;838;51.794;12.258;2022-08-20T11:06:06;22.70;78.90
1680;DHT22;838;51.794;12.258;2022-08-20T11:08:31;22.80;80.20
1680;DHT22;838;51.794;12.258;2022-08-20T11:10:57;22.80;76.90
1680;DHT22;838;51.794;12.258;2022-08-20T11:13:23;22.90;77.50
1680;DHT22;838;51.794;12.258;2022-08-20T11:15:49;22.90;76.50
1680;DHT22;838;51.794;12.258;2022-08-20T11:18:15;23.10;74.60
1680;DHT22;838;51.794;12.258;2022-08-20T11:20:41;23.20;72.80
1680;DHT22;838;51.794;12.258;2022-08-20T11:23:06;23.10;71.90
1680;DHT22;838;51.794;12.258;2022-08-20T11:25:32;23.30;74.10
1680;DHT22;838;51.794;12.258;2022-08-20T11:27:58;23.20;68.90
1680;DHT22;838;51.794;12.258;2022-08-20T11:30:32;23.10;67.70
1680;DHT22;838;51.794;12.258;2022-08-20T11:32:59;23.00;69.70
1680;DHT22;838;51.794;12.258;2022-08-20T11:35:26;23.20;67.10
1680;DHT22;838;51.794;12.258;2022-08-20T11:37:54;23.20;64.00
1680;DHT22;838;51.794;12.258;2022-08-20T11:40:20;23.20;55.20
1680;DHT22;838;51.794;12.258;2022-08-20T11:42:46;23.40;54.60
1680;DHT22;838;51.794;12.258;2022-08-20T11:45:13;23.40;51.70
1680;DHT22;838;51.794;12.258;2022-08-20T11:47:40;23.70;48.50
1680;DHT22;838;51.794;12.258;2022-08-20T11:50:12;24.00;47.00
1680;DHT22;838;51.794;12.258;2022-08-20T11:52:39;24.10;47.40
1680;DHT22;838;51.794;12.258;2022-08-20T11:55:08;24.30;40.50
1680;DHT22;838;51.794;12.258;2022-08-20T11:57:36;24.50;36.90
1680;DHT22;838;51.794;12.258;2022-08-20T12:00:06;24.70;35.40
1680;DHT22;838;51.794;12.258;2022-08-20T12:02:35;24.80;34.20
1680;DHT22;838;51.794;12.258;2022-08-20T12:05:02;24.60;34.40
1680;DHT22;838;51.794;12.258;2022-08-20T12:07:28;24.80;33.40
1680;DHT22;838;51.794;12.258;2022-08-20T12:09:53;24.90;31.10
1680;DHT22;838;51.794;12.258;2022-08-20T12:12:20;25.00;30.00
1680;DHT22;838;51.794;12.258;2022-08-20T12:14:50;25.10;28.40
1680;DHT22;838;51.794;12.258;2022-08-20T12:17:25;24.90;31.40
1680;DHT22;838;51.794;12.258;2022-08-20T12:19:54;24.80;30.40
1680;DHT22;838;51.794;12.258;2022-08-20T12:22:20;25.10;30.20
1680;DHT22;838;51.794;12.258;2022-08-20T12:24:46;25.10;25.80
1680;DHT22;838;51.794;12.258;2022-08-20T12:27:15;25.50;26.80
1680;DHT22;838;51.794;12.258;2022-08-20T12:29:46;25.40;25.60
1680;DHT22;838;51.794;12.258;2022-08-20T12:32:13;25.50;20.60
1680;DHT22;838;51.794;12.258;2022-08-20T12:34:40;25.60;20.70
1680;DHT22;838;51.794;12.258;2022-08-20T12:37:10;25.10;22.80
1680;DHT22;838;51.794;12.258;2022-08-20T12:39:40;25.30;24.70
1680;DHT22;838;51.794;12.258;2022-08-20T12:42:07;24.90;21.30
1680;DHT22;838;51.794;12.258;2022-08-20T12:44:33;24.70;24.40
1680;DHT22;838;51.794;12.258;2022-08-20T12:49:36;25.20;21.80
1680;DHT22;838;51.794;12.258;2022-08-20T12:52:03;25.40;19.30
1680;DHT22;838;51.794;12.258;2022-08-20T12:54:29;25.90;18.10
1680;DHT22;838;51.794;12.258;2022-08-20T12:56:55;26.00;16.00
1680;DHT22;838;51.794;12.258;2022-08-20T12:59:22;26.10;15.60
1680;DHT22;838;51.794;12.258;2022-08-20T13:01:49;26.50;21.70
1680;DHT22;838;51.794;12.258;2022-08-20T13:04:15;26.80;16.60
1680;DHT22;838;51.794;12.258;2022-08-20T13:06:41;27.00;12.90
1680;DHT22;838;51.794;12.258;2022-08-20T13:09:06;27.30;14.90
1680;DHT22;838;51.794;12.258;2022-08-20T13:11:32;27.50;14.90
1680;DHT22;838;51.794;12.258;2022-08-20T13:13:58;27.70;9.80
1680;DHT22;838;51.794;12.258;2022-08-20T13:16:24;27.70;9.10
1680;DHT22;838;51.794;12.258;2022-08-20T13:18:50;27.70;5.50
1680;DHT22;838;51.794;12.258;2022-08-20T13:21:15;27.90;6.60
1680;DHT22;838;51.794;12.258;2022-08-20T13:23:41;27.80;6.20
1680;DHT22;838;51.794;12.258;2022-08-20T13:26:07;27.90;5.70
1680;DHT22;838;51.794;12.258;2022-08-20T13:28:33;27.80;5.00
1680;DHT22;838;51.794;12.258;2022-08-20T13:30:59;27.90;3.20
1680;DHT22;838;51.794;12.258;2022-08-20T13:33:27;27.80;7.00
1680;DHT22;838;51.794;12.258;2022-08-20T13:35:53;27.70;3.70
1680;DHT22;838;51.794;12.258;2022-08-20T13:38:19;27.90;3.30
1680;DHT22;838;51.794;12.258;2022-08-20T13:40:45;28.10;1.00
1680;DHT22;838;51.794;12.258;2022-08-20T13:43:10;28.20;5.20
1680;DHT22;838;51.794;12.258;2022-08-20T13:45:37;28.10;1.00
1680;DHT22;838;51.794;12.258;2022-08-20T13:48:03;28.10;1.00
1680;DHT22;838;51.794;12.258;2022-08-20T13:50:30;27.80;1.00
1680;DHT22;838;51.794;12.258;2022-08-20T13:52:56;27.80;4.20
1680;DHT22;838;51.794;12.258;2022-08-20T13:55:23;27.80;5.30
1680;DHT22;838;51.794;12.258;2022-08-20T13:57:50;27.90;3.20
1680;DHT22;838;51.794;12.258;2022-08-20T14:00:23;28.00;1.30
1680;DHT22;838;51.794;12.258;2022-08-20T14:02:49;28.00;3.80
1680;DHT22;838;51.794;12.258;2022-08-20T14:05:15;27.90;6.40
1680;DHT22;838;51.794;12.258;2022-08-20T14:07:42;27.90;1.00
1680;DHT22;838;51.794;12.258;2022-08-20T14:10:21;28.00;1.00
1680;DHT22;838;51.794;12.258;2022-08-20T14:12:49;28.10;1.00
1680;DHT22;838;51.794;12.258;2022-08-20T14:15:15;27.90;4.40
1680;DHT22;838;51.794;12.258;2022-08-20T14:17:48;27.70;3.30
1680;DHT22;838;51.794;12.258;2022-08-20T14:20:17;27.70;2.40
1680;DHT22;838;51.794;12.258;2022-08-20T14:22:44;27.80;2.10
1680;DHT22;838;51.794;12.258;2022-08-20T14:25:15;27.60;1.00
1680;DHT22;838;51.794;12.258;2022-08-20T14:27:41;27.60;3.40
1680;DHT22;838;51.794;12.258;2022-08-20T14:30:11;27.60;5.50
1680;DHT22;838;51.794;12.258;2022-08-20T14:32:37;27.40;5.10
1680;DHT22;838;51.794;12.258;2022-08-20T14:35:03;27.40;7.80
1680;DHT22;838;51.794;12.258;2022-08-20T14:37:37;27.50;7.20
1680;DHT22;838;51.794;12.258;2022-08-20T14:40:06;27.20;4.30
1680;DHT22;838;51.794;12.258;2022-08-20T14:42:33;27.50;5.70
1680;DHT22;838;51.794;12.258;2022-08-20T14:44:58;27.70;5.50
1680;DHT22;838;51.794;12.258;2022-08-20T14:47:35;27.70;5.20
1680;DHT22;838;51.794;12.258;2022-08-20T14:50:08;27.70;6.90
1680;DHT22;838;51.794;12.258;2022-08-20T14:52:34;27.80;8.10
1680;DHT22;838;51.794;12.258;2022-08-20T14:55:04;27.80;10.40
1680;DHT22;838;51.794;12.258;2022-08-20T14:57:31;27.80;8.70
1680;DHT22;838;51.794;12.258;2022-08-20T14:59:57;27.70;3.80
1680;DHT22;838;51.794;12.258;2022-08-20T15:02:23;27.70;4.20
1680;DHT22;838;51.794;12.258;2022-08-20T15:04:49;27.60;9.70
1680;DHT22;838;51.794;12.258;2022-08-20T15:07:22;27.60;12.60
1680;DHT22;838;51.794;12.258;2022-08-20T15:09:49;27.60;15.20
1680;DHT22;838;51.794;12.258;2022-08-20T15:12:14;27.60;15.80
1680;DHT22;838;51.794;12.258;2022-08-20T15:14:40;27.10;18.40
1680;DHT22;838;51.794;12.258;2022-08-20T15:17:06;26.90;17.40
1680;DHT22;838;51.794;12.258;2022-08-20T15:19:34;27.00;18.30
1680;DHT22;838;51.794;12.258;2022-08-20T15:22:00;26.90;17.10
1680;DHT22;838;51.794;12.258;2022-08-20T15:24:25;26.90;14.80
1680;DHT22;838;51.794;12.258;2022-08-20T15:26:51;26.80;10.40
1680;DHT22;838;51.794;12.258;2022-08-20T15:29:17;26.50;7.60
1680;DHT22;838;51.794;12.258;2022-08-20T15:31:43;25.80;6.90
1680;DHT22;838;51.794;12.258;2022-08-20T15:34:09;25.80;7.60
1680;DHT22;838;51.794;12.258;2022-08-20T15:36:34;25.60;7.50
1680;DHT22;838;51.794;12.258;2022-08-20T15:39:00;25.60;8.30
1680;DHT22;838;51.794;12.258;2022-08-20T15:41:30;25.70;8.60
1680;DHT22;838;51.794;12.258;2022-08-20T15:43:56;25.80;7.80
1680;DHT22;838;51.794;12.258;2022-08-20T15:46:22;25.90;8.40
1680;DHT22;838;51.794;12.258;2022-08-20T15:48:49;26.10;8.00
1680;DHT22;838;51.794;12.258;2022-08-20T15:51:40;26.10;9.90
1680;DHT22;838;51.794;12.258;2022-08-20T15:54:13;26.20;10.60
1680;DHT22;838;51.794;12.258;2022-08-20T16:02:41;26.40;17.40
1680;DHT22;838;51.794;12.258;2022-08-20T16:10:50;26.50;5.90
1680;DHT22;838;51.794;12.258;2022-08-20T16:13:38;26.40;12.30
1680;DHT22;838;51.794;12.258;2022-08-20T16:18:53;26.40;12.00
1680;DHT22;838;51.794;12.258;2022-08-20T16:21:29;26.50;17.20
1680;DHT22;838;51.794;12.258;2022-08-20T16:23:59;26.40;22.30
1680;DHT22;838;51.794;12.258;2022-08-20T16:26:42;26.40;25.80
1680;DHT22;838;51.794;12.258;2022-08-20T16:29:18;26.30;23.50
1680;DHT22;838;51.794;12.258;2022-08-20T16:31:58;26.20;22.60